Kesgrave, United Kingdom
Current Conditions -  °F | °C
As of 10:50 PM on Thursday 18 Dec 2014 (Local Time) from EGUW Reporting Station
Overcast Overcast  
Wind Chill: 54°   Ceiling: 1200
Heat Index: 54°   Visibility: 6mi
Dew Point: 50°   Wind: 22mph
Humidity: 88%   Direction: 240°WSW
Pressure: 29.77"   Gusts: 33mph
Location:  52.06°N, 1.24°E
Report Text: EGUW 182250Z 24019G29KT 9999 OVC012 12/10 Q1008 GRN TEMPO 5000 -DZ SCT006 YLO1
Loading
Personal Weather Stations






























Interactive Weather Map New forecast layout! Learn more

10-Day Weather Forecast

Advertisements
Track Severe Weather on mobile